createdAt,value
2022-10-18T00:05:04.233Z,7.99
2022-10-18T00:10:07.860Z,8.00
2022-10-18T00:15:12.939Z,7.95
2022-10-18T00:20:17.826Z,7.91
2022-10-18T00:25:21.045Z,7.96
2022-10-18T00:30:24.495Z,7.89
2022-10-18T00:35:29.280Z,7.70
2022-10-18T00:40:32.690Z,7.74
2022-10-18T00:45:35.997Z,7.57
2022-10-18T00:50:41.608Z,7.56
2022-10-18T00:55:45.681Z,7.51
2022-10-18T01:00:49.039Z,7.30
2022-10-18T01:05:54.257Z,7.33
2022-10-18T01:11:11.062Z,7.22
2022-10-18T01:16:24.185Z,7.39
2022-10-18T01:21:39.626Z,7.45
2022-10-18T01:27:10.127Z,7.63
2022-10-18T01:32:20.290Z,7.73
2022-10-18T01:37:24.234Z,7.57
2022-10-18T01:42:28.643Z,7.71
2022-10-18T01:47:34.088Z,7.80
2022-10-18T01:52:37.602Z,7.86
2022-10-18T01:57:46.751Z,7.91
2022-10-18T02:02:57.824Z,7.84
2022-10-18T02:08:19.249Z,7.76
2022-10-18T02:13:31.089Z,7.82
2022-10-18T02:19:02.595Z,7.81
2022-10-18T02:24:08.130Z,7.83
2022-10-18T02:29:13.139Z,7.84
2022-10-18T02:34:22.881Z,7.91
2022-10-18T02:39:29.684Z,7.86
2022-10-18T02:44:33.148Z,7.80
2022-10-18T02:49:38.662Z,7.72
2022-10-18T02:54:42.022Z,7.62
2022-10-18T02:59:46.063Z,7.62
2022-10-18T03:04:50.761Z,7.64
2022-10-18T03:09:54.190Z,7.55
2022-10-18T03:14:57.502Z,7.54
2022-10-18T03:20:02.977Z,7.51
2022-10-18T03:25:07.400Z,7.50
2022-10-18T03:30:13.396Z,7.43
2022-10-18T03:35:18.347Z,7.29
2022-10-18T03:40:21.438Z,7.13
2022-10-18T03:45:28.908Z,6.99
2022-10-18T03:50:36.028Z,6.96
2022-10-18T03:55:39.713Z,6.92
2022-10-18T04:00:43.000Z,6.92
2022-10-18T04:05:48.290Z,6.96
2022-10-18T04:10:52.677Z,6.95
2022-10-18T04:15:56.145Z,6.89
2022-10-18T04:21:01.770Z,7.03
2022-10-18T04:26:05.621Z,7.12
2022-10-18T04:31:09.097Z,7.19
2022-10-18T04:36:13.954Z,7.20
2022-10-18T04:41:17.127Z,7.24
2022-10-18T04:46:20.979Z,7.26
2022-10-18T04:51:26.646Z,7.38
2022-10-18T04:56:31.317Z,7.33
2022-10-18T05:01:34.811Z,7.49
2022-10-18T05:06:40.020Z,7.60
2022-10-18T05:11:44.021Z,7.62
2022-10-18T05:16:48.387Z,7.69
2022-10-18T05:21:53.277Z,7.66
2022-10-18T05:26:56.579Z,7.78
2022-10-18T05:32:00.142Z,7.80
2022-10-18T05:37:05.266Z,7.88
2022-10-18T05:42:09.004Z,7.99
2022-10-18T05:47:13.436Z,7.89
2022-10-18T05:52:18.462Z,7.92
2022-10-18T05:57:22.165Z,7.98
2022-10-18T06:02:25.710Z,8.09
2022-10-18T06:07:31.157Z,8.34
2022-10-18T06:12:35.639Z,8.39
2022-10-18T06:17:39.430Z,8.41
2022-10-18T06:22:44.436Z,8.50
2022-10-18T06:27:47.962Z,8.68
2022-10-18T06:32:51.344Z,8.79
2022-10-18T06:37:56.067Z,8.76
2022-10-18T06:43:19.551Z,8.78
2022-10-18T06:48:25.124Z,8.62
2022-10-18T06:53:32.009Z,8.84
2022-10-18T06:58:36.613Z,8.84
2022-10-18T07:03:40.435Z,8.83
2022-10-18T07:08:45.563Z,8.98
2022-10-18T07:13:48.910Z,8.88
2022-10-18T07:18:53.191Z,9.05
2022-10-18T07:23:58.280Z,9.18
2022-10-18T07:29:06.555Z,9.03
2022-10-18T07:34:13.547Z,9.03
2022-10-18T07:39:19.034Z,8.98
2022-10-18T07:44:22.470Z,9.01
2022-10-18T07:49:26.756Z,8.92
2022-10-18T07:54:31.549Z,8.99
2022-10-18T07:59:34.960Z,8.73
2022-10-18T08:04:38.400Z,8.92
2022-10-18T08:09:43.142Z,8.38
2022-10-18T08:14:47.225Z,8.18
2022-10-18T08:20:04.738Z,8.03
2022-10-18T08:25:16.195Z,7.90
2022-10-18T08:30:23.437Z,7.66
2022-10-18T08:35:26.861Z,7.78
2022-10-18T08:40:33.946Z,8.02
2022-10-18T08:45:43.191Z,8.16
2022-10-18T08:50:48.246Z,8.30
2022-10-18T08:55:59.214Z,8.47
2022-10-18T09:01:16.049Z,8.55
2022-10-18T09:06:26.881Z,8.44
2022-10-18T09:11:48.646Z,8.66
2022-10-18T09:17:02.035Z,8.74
2022-10-18T09:22:11.368Z,8.76
2022-10-18T09:27:19.041Z,8.82
2022-10-18T09:32:33.735Z,8.79
2022-10-18T09:37:37.634Z,8.63
2022-10-18T09:42:49.044Z,8.86
2022-10-18T09:48:03.400Z,8.93
2022-10-18T09:53:17.201Z,8.87
2022-10-18T09:58:24.159Z,8.82
2022-10-18T10:03:27.586Z,8.92
2022-10-18T10:08:36.068Z,9.15
2022-10-18T10:13:40.973Z,9.23
2022-10-18T10:18:44.097Z,9.19
2022-10-18T10:23:52.711Z,9.36
2022-10-18T10:28:57.687Z,9.61
2022-10-18T10:34:03.261Z,10.11
2022-10-18T10:39:08.711Z,10.16
2022-10-18T10:44:18.685Z,10.26
2022-10-18T10:49:41.282Z,10.13
2022-10-18T10:54:51.217Z,10.30
2022-10-18T10:59:59.777Z,10.40
2022-10-18T11:05:23.056Z,10.63
2022-10-18T11:10:32.147Z,10.67
2022-10-18T11:15:43.204Z,10.65
2022-10-18T11:20:50.424Z,10.93
2022-10-18T11:26:19.660Z,11.04
2022-10-18T11:31:32.052Z,11.31
2022-10-18T11:36:50.406Z,11.65
2022-10-18T11:42:04.896Z,11.74
2022-10-18T11:47:17.077Z,12.22
2022-10-18T11:52:29.546Z,12.26
2022-10-18T11:57:44.483Z,12.23
2022-10-18T12:03:04.839Z,12.28
2022-10-18T12:08:12.622Z,12.19
2022-10-18T12:13:23.113Z,12.29
2022-10-18T12:18:29.566Z,12.34
2022-10-18T12:23:40.477Z,12.40
2022-10-18T12:28:55.648Z,12.43
2022-10-18T12:34:04.702Z,12.42
2022-10-18T12:39:13.900Z,12.58
2022-10-18T12:44:22.286Z,12.74
2022-10-18T12:49:30.886Z,12.81
2022-10-18T12:54:36.453Z,12.71
2022-10-18T12:59:43.264Z,12.71
2022-10-18T13:04:48.157Z,12.74
2022-10-18T13:10:40.260Z,12.94
2022-10-18T13:15:47.940Z,13.01
2022-10-18T13:21:04.214Z,13.00
2022-10-18T13:26:20.391Z,13.01
2022-10-18T13:31:28.420Z,12.95
2022-10-18T13:36:34.568Z,12.96
2022-10-18T13:42:11.340Z,13.12
2022-10-18T13:47:17.354Z,13.01
2022-10-18T13:52:30.749Z,12.91
2022-10-18T13:57:48.825Z,12.66
2022-10-18T14:03:43.994Z,12.82
2022-10-18T14:08:47.572Z,12.81
2022-10-18T14:13:57.008Z,12.76
2022-10-18T14:19:13.563Z,12.70
2022-10-18T14:24:22.630Z,12.73
2022-10-18T14:29:26.172Z,12.67
2022-10-18T14:34:29.678Z,12.74
2022-10-18T14:39:35.553Z,12.69
2022-10-18T14:44:38.999Z,12.68
2022-10-18T14:49:45.747Z,12.66
2022-10-18T14:54:50.519Z,12.62
2022-10-18T14:59:57.124Z,12.58
2022-10-18T15:05:08.050Z,12.44
2022-10-18T15:10:18.032Z,12.36
2022-10-18T15:15:29.484Z,12.34
2022-10-18T15:20:35.406Z,12.30
2022-10-18T15:25:40.230Z,12.07
2022-10-18T15:30:43.825Z,11.93
2022-10-18T15:35:47.317Z,11.77
2022-10-18T15:40:52.460Z,11.86
2022-10-18T15:46:00.297Z,11.79
2022-10-18T15:51:09.227Z,11.68
2022-10-18T15:56:29.480Z,11.60
2022-10-18T16:01:39.046Z,11.26
2022-10-18T16:06:43.698Z,11.01
2022-10-18T16:11:55.617Z,10.83
2022-10-18T16:17:02.187Z,10.65
2022-10-18T16:22:06.967Z,10.58
2022-10-18T16:27:12.068Z,10.74
2022-10-18T16:32:15.445Z,10.84
2022-10-18T16:37:18.794Z,10.88
2022-10-18T16:42:23.642Z,10.86
2022-10-18T16:47:27.141Z,10.70
2022-10-18T16:52:30.634Z,10.65
2022-10-18T16:57:35.699Z,10.60
2022-10-18T17:02:39.934Z,10.57
2022-10-18T17:07:44.133Z,10.42
2022-10-18T17:12:49.318Z,10.32
2022-10-18T17:17:52.802Z,10.23
2022-10-18T17:22:56.139Z,10.24
2022-10-18T17:28:01.627Z,10.15
2022-10-18T17:33:08.363Z,10.16
2022-10-18T17:38:12.878Z,10.19
2022-10-18T17:43:17.616Z,10.19
2022-10-18T17:48:20.679Z,10.13
2022-10-18T17:53:28.494Z,10.12
2022-10-18T17:58:33.726Z,10.13
2022-10-18T18:03:37.237Z,9.94
2022-10-18T18:08:40.734Z,9.80
2022-10-18T18:13:45.483Z,9.80
2022-10-18T18:18:50.546Z,9.71
2022-10-18T18:23:54.225Z,9.53
2022-10-18T18:28:59.076Z,9.50
2022-10-18T18:34:02.825Z,9.46
2022-10-18T18:39:06.934Z,9.36
2022-10-18T18:44:11.823Z,9.19
2022-10-18T18:49:14.957Z,9.03
2022-10-18T18:54:18.417Z,9.08
2022-10-18T18:59:23.435Z,9.17
2022-10-18T19:04:27.005Z,9.27
2022-10-18T19:09:31.948Z,9.32
2022-10-18T19:14:36.662Z,9.42
2022-10-18T19:19:41.094Z,9.57
2022-10-18T19:24:44.666Z,9.54
2022-10-18T19:29:49.551Z,9.44
2022-10-18T19:34:53.333Z,9.65
2022-10-18T19:39:56.683Z,9.63
2022-10-18T19:45:02.374Z,9.62
2022-10-18T19:50:07.196Z,9.49
2022-10-18T19:55:11.001Z,9.36
2022-10-18T20:00:19.409Z,9.43
2022-10-18T20:05:23.113Z,9.44
2022-10-18T20:10:26.679Z,9.38
2022-10-18T20:15:31.453Z,9.35
2022-10-18T20:20:36.091Z,9.16
2022-10-18T20:25:39.681Z,8.99
2022-10-18T20:30:44.469Z,9.03
2022-10-18T20:35:52.021Z,9.18
2022-10-18T20:40:55.623Z,9.24
2022-10-18T20:46:01.095Z,9.14
2022-10-18T20:51:05.286Z,8.91
2022-10-18T20:56:10.726Z,8.87
2022-10-18T21:01:19.915Z,9.01
2022-10-18T21:06:25.081Z,9.11
2022-10-18T21:11:30.624Z,9.14
2022-10-18T21:16:37.049Z,9.22
2022-10-18T21:21:41.741Z,9.27
2022-10-18T21:26:45.659Z,9.35
2022-10-18T21:31:50.547Z,9.42
2022-10-18T21:36:53.612Z,9.55
2022-10-18T21:41:57.056Z,9.49
2022-10-18T21:47:01.784Z,9.59
2022-10-18T21:52:06.554Z,9.54
2022-10-18T21:57:09.900Z,9.58
2022-10-18T22:02:14.615Z,9.61
2022-10-18T22:07:18.244Z,9.66
2022-10-18T22:12:21.725Z,9.57
2022-10-18T22:17:26.554Z,9.64
2022-10-18T22:22:29.642Z,9.60
2022-10-18T22:27:33.535Z,9.49
2022-10-18T22:32:38.539Z,9.49
2022-10-18T22:37:41.818Z,9.48
2022-10-18T22:42:45.177Z,9.43
2022-10-18T22:47:49.855Z,9.39
2022-10-18T22:52:54.627Z,9.32
2022-10-18T22:57:57.893Z,9.31
2022-10-18T23:03:02.673Z,9.28
2022-10-18T23:08:05.965Z,9.36
2022-10-18T23:13:10.761Z,9.18
2022-10-18T23:18:15.277Z,9.29
2022-10-18T23:23:18.646Z,9.12
2022-10-18T23:28:22.010Z,9.05
2022-10-18T23:33:26.816Z,9.21
2022-10-18T23:38:30.347Z,9.12
2022-10-18T23:43:33.919Z,9.11
2022-10-18T23:48:38.735Z,9.25
2022-10-18T23:53:42.091Z,9.33
2022-10-18T23:58:46.452Z,9.22
